Terminal Aerodrome Forecast
Issued by NWS

Home | Current Version | Previous Version | Text Only | Print | Product List | Glossary On
Versions: 1 2 3 4 5 6 7 8 9 10 11 12 13 14 15 16
000
FTUS43 KMQT 200523
TAFSAW
TAF
KSAW 200523Z 2006/2106 16006KT P6SM BKN250
     FM201300 16012KT P6SM BKN200
     FM202200 17015KT P6SM -SHRA BKN060 WS010/17045KT
     FM210000 16012G21KT 1 1/2SM -SHRA OVC015 WS010/17050KT
     FM210400 19009KT 1 1/2SM -SHRA OVC004 WS010/18045KT=

USA.gov is the U.S. government's official web portal to all federal, state and local government web resources and services.